7W4

Lake Anna Airport

Bumpass, Virginia, USA
METAR K7W4 160555Z AUTO 00000KT 2 1/2SM CLR M04/M04 A3013 RMK AO1 T10371045 11011 21042
Observed Flight Rules
Jan-16 @ 05:55 UTC (6 minutes ago) Instrument Flight Rules
Visibility Clouds
2 1/2 miles
  • Clear skies
Temperatures Readings
Current -4°C / 25°F
Dewpoint -5°C / 23°F
Humidity 93%
Altimeter 30.13" Hg
Pressure 1020.32 hPa
Elevation 106
METAR K7W4 160555Z AUTO 00000KT 2 1/2SM CLR M04/M04 A3013 RMK AO1 T10371045 11011 21042
Observed Flight Rules
Jan-16 @ 05:55 UTC
(6 minutes ago)
IFR
Clouds
  • Clear skies
Temperature Dewpoint
-4°C / 25°F -5°C / 23°F
Humidity Altimeter Pressure
93% 30.13" Hg 1020.32 hPa